Time;durP1;ratioP1;P1;durP2;ratioP2;P2;SDS_P1;SDS_P2;PMS_P1;PMS_P2;Temp;Humidity;BMP_temperature;BMP_pressure;BME280_temperature;BME280_humidity;BME280_pressure;Samples;Min_cycle;Max_cycle;Signal;HPM_P1;HPM_P2
2022/04/04 00:00:47;;;;;;;5.35;3.42;;;;;;;;;;6208356;22;20523;-45
2022/04/04 00:03:12;;;;;;;4.95;3.80;;;;;;;;;;6209242;22;20020;-44
2022/04/04 00:05:38;;;;;;;3.60;2.88;;;;;;;;;;6207386;22;20012;-46
2022/04/04 00:08:03;;;;;;;9.15;4.45;;;;;;;;;;6210529;22;20015;-44
2022/04/04 00:10:28;;;;;;;6.30;3.67;;;;;;;;;;6206934;22;20482;-47
2022/04/04 00:12:54;;;;;;;15.18;3.78;;;;;;;;;;6209774;22;20068;-48
2022/04/04 00:15:19;;;;;;;7.22;3.80;;;;;;;;;;6208697;22;20742;-46
2022/04/04 00:17:47;;;;;;;12.65;4.40;;;;;;;;;;6208678;22;20092;-45
2022/04/04 00:20:12;;;;;;;7.43;3.67;;;;;;;;;;6208817;22;20040;-47
2022/04/04 00:22:38;;;;;;;9.68;4.55;;;;;;;;;;6209845;22;20012;-46
2022/04/04 00:25:04;;;;;;;5.88;3.22;;;;;;;;;;6182139;23;20218;-48
2022/04/04 00:27:29;;;;;;;8.60;3.50;;;;;;;;;;6182741;22;20066;-47
2022/04/04 00:29:54;;;;;;;7.35;3.65;;;;;;;;;;6209504;22;20021;-46
2022/04/04 00:32:20;;;;;;;4.35;3.10;;;;;;;;;;6207785;22;20017;-50
2022/04/04 00:34:45;;;;;;;8.02;4.15;;;;;;;;;;6183076;23;20017;-45
2022/04/04 00:37:10;;;;;;;5.63;3.25;;;;;;;;;;6208673;22;20031;-46
2022/04/04 00:39:36;;;;;;;9.27;3.55;;;;;;;;;;6208837;22;20023;-48
2022/04/04 00:42:01;;;;;;;4.25;3.13;;;;;;;;;;6209210;22;20008;-46
2022/04/04 00:44:26;;;;;;;12.63;4.00;;;;;;;;;;6208576;22;20005;-47
2022/04/04 00:46:51;;;;;;;6.75;3.58;;;;;;;;;;6208862;22;20035;-47
2022/04/04 00:49:18;;;;;;;6.85;3.08;;;;;;;;;;6208421;22;20080;-46
2022/04/04 00:51:44;;;;;;;9.40;3.17;;;;;;;;;;6207908;22;20025;-48
2022/04/04 00:54:09;;;;;;;5.57;3.10;;;;;;;;;;6208387;22;20359;-45
2022/04/04 00:56:35;;;;;;;5.05;3.17;;;;;;;;;;6208710;22;20012;-45
2022/04/04 00:59:01;;;;;;;4.18;3.03;;;;;;;;;;6208929;22;20020;-45
2022/04/04 01:01:26;;;;;;;6.82;2.55;;;;;;;;;;6207793;22;20019;-45
2022/04/04 01:03:52;;;;;;;4.97;3.00;;;;;;;;;;6208454;22;20028;-46
2022/04/04 01:06:18;;;;;;;6.10;2.95;;;;;;;;;;6208487;22;20013;-46
2022/04/04 01:08:44;;;;;;;9.55;4.47;;;;;;;;;;6182282;23;20067;-46
2022/04/04 01:11:10;;;;;;;10.18;5.82;;;;;;;;;;6172510;23;20013;-45
2022/04/04 01:13:35;;;;;;;11.82;6.32;;;;;;;;;;6208356;22;20060;-46
2022/04/04 01:16:00;;;;;;;14.90;6.15;;;;;;;;;;6208006;22;20019;-47
2022/04/04 01:18:25;;;;;;;13.70;7.50;;;;;;;;;;6206524;22;20098;-44
2022/04/04 01:20:51;;;;;;;11.43;7.72;;;;;;;;;;6208318;22;20016;-46
2022/04/04 01:23:23;;;;;;;14.13;9.30;;;;;;;;;;6208925;22;20044;-47
2022/04/04 01:25:49;;;;;;;10.95;7.75;;;;;;;;;;6206273;22;20039;-45
2022/04/04 01:28:14;;;;;;;14.45;8.45;;;;;;;;;;6208216;22;20017;-48
2022/04/04 01:30:40;;;;;;;14.32;8.55;;;;;;;;;;6207200;22;20013;-47
2022/04/04 01:33:06;;;;;;;11.75;7.70;;;;;;;;;;6208618;22;20044;-46
2022/04/04 01:35:31;;;;;;;15.25;8.27;;;;;;;;;;6207042;22;20021;-49
2022/04/04 01:37:56;;;;;;;15.73;8.77;;;;;;;;;;6183161;23;20009;-46
2022/04/04 01:40:22;;;;;;;13.73;8.30;;;;;;;;;;6206315;22;20016;-45
2022/04/04 01:42:48;;;;;;;17.73;8.88;;;;;;;;;;6210148;22;20023;-46
2022/04/04 01:45:14;;;;;;;16.15;8.50;;;;;;;;;;6207293;22;20012;-47
2022/04/04 01:47:40;;;;;;;18.25;9.55;;;;;;;;;;6208815;22;20009;-44
2022/04/04 01:50:07;;;;;;;14.23;9.02;;;;;;;;;;6208497;22;20032;-46
2022/04/04 01:52:32;;;;;;;13.98;9.07;;;;;;;;;;6208062;22;20024;-48
2022/04/04 01:54:57;;;;;;;12.57;8.57;;;;;;;;;;6208639;22;20068;-47
2022/04/04 01:57:22;;;;;;;14.68;9.32;;;;;;;;;;6208311;22;20039;-46
2022/04/04 01:59:48;;;;;;;15.02;8.18;;;;;;;;;;6208389;22;20024;-47
2022/04/04 02:02:13;;;;;;;17.00;9.05;;;;;;;;;;6207934;22;20012;-46
2022/04/04 02:04:39;;;;;;;19.27;9.10;;;;;;;;;;6208835;22;20009;-45
2022/04/04 02:07:07;;;;;;;16.65;8.85;;;;;;;;;;6208744;22;20017;-45
2022/04/04 02:09:34;;;;;;;22.13;10.60;;;;;;;;;;6207437;22;20020;-44
2022/04/04 02:11:59;;;;;;;16.15;9.55;;;;;;;;;;6208296;22;20019;-45
2022/04/04 02:14:24;;;;;;;18.17;9.30;;;;;;;;;;6207711;22;20017;-47
2022/04/04 02:16:49;;;;;;;17.45;9.70;;;;;;;;;;6206247;22;20012;-45
2022/04/04 02:19:17;;;;;;;13.65;8.77;;;;;;;;;;6180393;22;20927;-47
2022/04/04 02:21:43;;;;;;;10.45;7.55;;;;;;;;;;6207294;22;20021;-45
2022/04/04 02:24:08;;;;;;;18.67;8.90;;;;;;;;;;6208408;22;20019;-46
2022/04/04 02:26:34;;;;;;;13.75;7.80;;;;;;;;;;6179953;22;20009;-46
2022/04/04 02:28:59;;;;;;;13.13;8.10;;;;;;;;;;6208149;22;20082;-45
2022/04/04 02:31:24;;;;;;;11.00;7.32;;;;;;;;;;6206267;22;20017;-46
2022/04/04 02:33:51;;;;;;;11.27;7.65;;;;;;;;;;6208522;22;20035;-46
2022/04/04 02:36:17;;;;;;;9.25;6.45;;;;;;;;;;6205935;22;20021;-46
2022/04/04 02:38:42;;;;;;;8.02;6.15;;;;;;;;;;6208468;22;20023;-44
2022/04/04 02:41:08;;;;;;;10.30;6.00;;;;;;;;;;6206736;22;20020;-45
2022/04/04 02:43:33;;;;;;;10.50;6.25;;;;;;;;;;6207332;22;20020;-47
2022/04/04 02:45:59;;;;;;;13.63;7.32;;;;;;;;;;6208468;22;20009;-47
2022/04/04 02:48:24;;;;;;;11.57;6.00;;;;;;;;;;6206289;22;20020;-46
2022/04/04 02:50:49;;;;;;;7.60;5.47;;;;;;;;;;6208417;22;20125;-45
2022/04/04 02:53:15;;;;;;;14.05;6.65;;;;;;;;;;6205096;22;20277;-46
2022/04/04 02:58:24;;;;;;;12.85;7.25;;;;;;;;;;6208128;22;20039;-47
2022/04/04 03:00:50;;;;;;;12.40;7.13;;;;;;;;;;6208501;22;20012;-47
2022/04/04 03:03:15;;;;;;;13.43;7.38;;;;;;;;;;6206071;22;20013;-47
2022/04/04 03:05:41;;;;;;;9.98;6.63;;;;;;;;;;6208349;22;20107;-46
2022/04/04 03:08:06;;;;;;;14.00;6.93;;;;;;;;;;6208005;22;20017;-46
2022/04/04 03:10:32;;;;;;;14.40;7.82;;;;;;;;;;6206502;22;20024;-51
2022/04/04 03:12:59;;;;;;;18.40;7.20;;;;;;;;;;6180758;23;20019;-45
2022/04/04 03:15:25;;;;;;;14.45;7.50;;;;;;;;;;6180355;22;20020;-45
2022/04/04 03:17:51;;;;;;;11.52;7.43;;;;;;;;;;6208532;22;20008;-47
2022/04/04 03:20:18;;;;;;;10.77;6.57;;;;;;;;;;6206198;22;20082;-45
2022/04/04 03:22:46;;;;;;;10.90;7.20;;;;;;;;;;6209133;22;20017;-46
2022/04/04 03:25:12;;;;;;;15.18;6.78;;;;;;;;;;6205802;22;20019;-45
2022/04/04 03:27:37;;;;;;;27.92;9.85;;;;;;;;;;6207846;22;20040;-46
2022/04/04 03:30:04;;;;;;;14.98;8.07;;;;;;;;;;6180862;23;20332;-46
2022/04/04 03:32:29;;;;;;;12.88;7.40;;;;;;;;;;6206492;22;20056;-48
2022/04/04 03:34:54;;;;;;;9.95;6.78;;;;;;;;;;6208636;22;20025;-45
2022/04/04 03:37:19;;;;;;;9.20;5.47;;;;;;;;;;6206122;22;20028;-45
2022/04/04 03:39:45;;;;;;;11.73;7.13;;;;;;;;;;6182292;23;20020;-44
2022/04/04 03:42:10;;;;;;;17.23;7.65;;;;;;;;;;6207002;22;20036;-46
2022/04/04 03:44:35;;;;;;;19.52;7.88;;;;;;;;;;6207701;22;20013;-47
2022/04/04 03:47:00;;;;;;;10.43;7.15;;;;;;;;;;6207593;22;20417;-44
2022/04/04 03:49:26;;;;;;;12.80;6.95;;;;;;;;;;6207854;22;20186;-44
2022/04/04 03:51:51;;;;;;;11.02;7.35;;;;;;;;;;6207025;22;20636;-46
2022/04/04 03:54:16;;;;;;;9.23;5.97;;;;;;;;;;6207264;22;20087;-45
2022/04/04 03:56:43;;;;;;;14.13;7.65;;;;;;;;;;6208392;22;20016;-47
2022/04/04 03:59:09;;;;;;;13.25;6.63;;;;;;;;;;6207745;22;20110;-45
2022/04/04 04:01:34;;;;;;;11.43;6.38;;;;;;;;;;6207182;22;20016;-44
2022/04/04 04:03:59;;;;;;;11.40;6.45;;;;;;;;;;6207389;22;20017;-46
2022/04/04 04:06:25;;;;;;;18.65;7.28;;;;;;;;;;6207422;22;20020;-45
2022/04/04 04:08:50;;;;;;;12.70;7.82;;;;;;;;;;6206840;22;20046;-44
2022/04/04 04:11:16;;;;;;;8.90;6.53;;;;;;;;;;6207185;22;20009;-45
2022/04/04 04:13:42;;;;;;;11.88;7.20;;;;;;;;;;6206441;22;20015;-44
2022/04/04 04:16:13;;;;;;;11.85;7.57;;;;;;;;;;6208983;22;20012;-44
2022/04/04 04:18:38;;;;;;;12.25;7.32;;;;;;;;;;6206488;22;20443;-44
2022/04/04 04:21:05;;;;;;;17.38;8.43;;;;;;;;;;6208048;22;20013;-46
2022/04/04 04:23:30;;;;;;;14.15;7.53;;;;;;;;;;6205537;22;20044;-46
2022/04/04 04:25:55;;;;;;;13.65;7.25;;;;;;;;;;6208170;22;20027;-45
2022/04/04 04:28:21;;;;;;;15.73;7.95;;;;;;;;;;6180123;22;20117;-44
2022/04/04 04:30:46;;;;;;;12.55;7.82;;;;;;;;;;6210291;22;20002;-46
2022/04/04 04:33:12;;;;;;;11.82;6.60;;;;;;;;;;6207315;22;20099;-45
2022/04/04 04:35:37;;;;;;;10.35;6.43;;;;;;;;;;6208583;22;20004;-45
2022/04/04 04:38:03;;;;;;;11.50;6.72;;;;;;;;;;6208159;22;20012;-44
2022/04/04 04:40:28;;;;;;;11.52;7.45;;;;;;;;;;6208920;22;20017;-46
2022/04/04 04:42:54;;;;;;;11.70;6.10;;;;;;;;;;6209690;22;20028;-46
2022/04/04 04:45:20;;;;;;;15.02;8.73;;;;;;;;;;6209506;22;20017;-44
2022/04/04 04:47:45;;;;;;;12.75;5.40;;;;;;;;;;6208848;22;20060;-44
2022/04/04 04:50:12;;;;;;;10.10;6.93;;;;;;;;;;6172888;23;20033;-45
2022/04/04 04:52:37;;;;;;;8.82;5.57;;;;;;;;;;6146567;23;20018;-46
2022/04/04 04:55:04;;;;;;;10.88;6.90;;;;;;;;;;6150544;23;20013;-45
2022/04/04 04:57:29;;;;;;;12.07;6.45;;;;;;;;;;6147733;23;21119;-44
2022/04/04 04:59:55;;;;;;;11.95;7.07;;;;;;;;;;6150628;23;20022;-45
2022/04/04 05:02:20;;;;;;;11.57;5.65;;;;;;;;;;6147657;23;20041;-45
2022/04/04 05:04:46;;;;;;;10.20;6.35;;;;;;;;;;6150654;23;20013;-45
2022/04/04 05:07:13;;;;;;;9.77;6.25;;;;;;;;;;6149013;23;20104;-44
2022/04/04 05:09:38;;;;;;;7.85;5.72;;;;;;;;;;6150213;23;20087;-45
2022/04/04 05:12:04;;;;;;;19.85;7.05;;;;;;;;;;6145838;23;20332;-45
2022/04/04 05:14:29;;;;;;;11.13;6.18;;;;;;;;;;6147210;23;20108;-46
2022/04/04 05:16:55;;;;;;;9.68;6.82;;;;;;;;;;6148421;23;20021;-45
2022/04/04 05:19:20;;;;;;;15.00;7.10;;;;;;;;;;6148494;23;20053;-45
2022/04/04 05:21:46;;;;;;;11.95;6.32;;;;;;;;;;6147465;23;20038;-47
2022/04/04 05:24:12;;;;;;;12.18;6.68;;;;;;;;;;6149815;23;20073;-46
2022/04/04 05:26:37;;;;;;;10.40;6.57;;;;;;;;;;6147333;23;20006;-46
2022/04/04 05:29:03;;;;;;;11.90;7.03;;;;;;;;;;6149248;23;20324;-45
2022/04/04 05:31:30;;;;;;;11.00;5.88;;;;;;;;;;6146701;23;20013;-44
2022/04/04 05:33:57;;;;;;;11.65;6.90;;;;;;;;;;6150399;23;20052;-45
2022/04/04 05:36:22;;;;;;;18.08;7.97;;;;;;;;;;6147805;23;20089;-44
2022/04/04 05:38:50;;;;;;;16.85;7.38;;;;;;;;;;6149958;23;20018;-45
2022/04/04 05:41:17;;;;;;;12.57;6.75;;;;;;;;;;6147273;23;20511;-47
2022/04/04 05:43:47;;;;;;;12.20;6.72;;;;;;;;;;6172956;23;20033;-45
2022/04/04 05:46:12;;;;;;;;;;;;;;;;;;6148873;23;20040;-46
2022/04/04 05:48:37;;;;;;;9.17;6.20;;;;;;;;;;6149325;23;19959;-48
2022/04/04 05:51:03;;;;;;;9.20;5.82;;;;;;;;;;6180520;22;20234;-46
2022/04/04 05:53:28;;;;;;;9.52;5.63;;;;;;;;;;6207549;22;20131;-46
2022/04/04 05:55:54;;;;;;;14.52;5.93;;;;;;;;;;6180603;23;20005;-45
2022/04/04 05:58:19;;;;;;;13.57;6.47;;;;;;;;;;6208732;22;20059;-46
2022/04/04 06:00:44;;;;;;;10.15;6.20;;;;;;;;;;6181691;23;20017;-45
2022/04/04 06:03:10;;;;;;;9.55;6.03;;;;;;;;;;6209356;22;20017;-48
2022/04/04 06:05:35;;;;;;;9.52;6.72;;;;;;;;;;6181500;22;20043;-47
2022/04/04 06:08:01;;;;;;;9.13;5.30;;;;;;;;;;6209840;22;20017;-48
2022/04/04 06:10:27;;;;;;;15.45;7.78;;;;;;;;;;6206888;22;20017;-47
2022/04/04 06:12:53;;;;;;;13.32;7.80;;;;;;;;;;6208987;22;20020;-46
2022/04/04 06:15:18;;;;;;;16.52;7.63;;;;;;;;;;6206374;22;20031;-45
2022/04/04 06:17:45;;;;;;;9.13;6.40;;;;;;;;;;6183004;23;20714;-46
2022/04/04 06:20:10;;;;;;;10.73;5.05;;;;;;;;;;6205321;22;20027;-47
2022/04/04 06:22:39;;;;;;;10.90;6.97;;;;;;;;;;6208560;22;20008;-46
2022/04/04 06:25:05;;;;;;;15.57;6.55;;;;;;;;;;6206500;22;20013;-46
2022/04/04 06:27:30;;;;;;;8.88;5.72;;;;;;;;;;6207666;22;20024;-46
2022/04/04 06:29:56;;;;;;;10.98;5.40;;;;;;;;;;6207858;22;20009;-47
2022/04/04 06:32:24;;;;;;;8.90;5.03;;;;;;;;;;6203754;22;20039;-46
2022/04/04 06:34:49;;;;;;;10.48;5.75;;;;;;;;;;6182431;23;20024;-46
2022/04/04 06:37:14;;;;;;;10.88;5.53;;;;;;;;;;6204707;22;20016;-47
2022/04/04 06:39:39;;;;;;;11.02;5.35;;;;;;;;;;6208877;22;20027;-45
2022/04/04 06:42:05;;;;;;;8.75;6.25;;;;;;;;;;6205791;22;20024;-47
2022/04/04 06:44:30;;;;;;;9.82;5.78;;;;;;;;;;6207673;22;20681;-44
2022/04/04 06:46:56;;;;;;;7.13;4.80;;;;;;;;;;6205942;22;20017;-47
2022/04/04 06:49:21;;;;;;;8.88;6.10;;;;;;;;;;6207023;22;20012;-47
2022/04/04 06:51:47;;;;;;;9.13;5.57;;;;;;;;;;6206921;22;20112;-45
2022/04/04 06:54:12;;;;;;;12.00;6.22;;;;;;;;;;6208452;22;20024;-45
2022/04/04 06:56:37;;;;;;;13.73;5.93;;;;;;;;;;6206707;22;20039;-46
2022/04/04 06:59:03;;;;;;;7.93;4.72;;;;;;;;;;6209034;22;20363;-45
2022/04/04 07:01:29;;;;;;;10.90;5.80;;;;;;;;;;6206428;22;20574;-48
2022/04/04 07:03:54;;;;;;;10.15;4.63;;;;;;;;;;6207114;22;20017;-46
2022/04/04 07:06:20;;;;;;;9.52;6.13;;;;;;;;;;6201272;22;20032;-45
2022/04/04 07:08:46;;;;;;;12.02;5.50;;;;;;;;;;6201399;22;20009;-44
2022/04/04 07:11:13;;;;;;;6.13;4.43;;;;;;;;;;6174876;23;20051;-46
2022/04/04 07:13:38;;;;;;;7.78;5.10;;;;;;;;;;6202770;22;20007;-46
2022/04/04 07:16:04;;;;;;;10.40;6.13;;;;;;;;;;6202076;22;20389;-46
2022/04/04 07:18:29;;;;;;;10.65;4.80;;;;;;;;;;6200766;22;20009;-45
2022/04/04 07:20:54;;;;;;;7.78;3.75;;;;;;;;;;6203096;22;20024;-45
2022/04/04 07:23:20;;;;;;;5.78;4.10;;;;;;;;;;6201063;22;20012;-45
2022/04/04 07:25:46;;;;;;;5.65;3.88;;;;;;;;;;6201436;22;20017;-46
2022/04/04 07:28:13;;;;;;;6.43;4.32;;;;;;;;;;6205386;22;20013;-45
2022/04/04 07:30:39;;;;;;;5.82;4.05;;;;;;;;;;6207777;22;20371;-45
2022/04/04 07:33:04;;;;;;;5.50;3.45;;;;;;;;;;6205301;22;20489;-45
2022/04/04 07:35:29;;;;;;;4.75;3.15;;;;;;;;;;6207183;22;20019;-44
2022/04/04 07:37:55;;;;;;;3.67;2.75;;;;;;;;;;6177633;23;20031;-44
2022/04/04 07:40:21;;;;;;;7.22;2.92;;;;;;;;;;6206102;22;20028;-47
2022/04/04 07:42:46;;;;;;;5.65;3.42;;;;;;;;;;6178901;23;20005;-46
2022/04/04 07:45:13;;;;;;;8.32;3.10;;;;;;;;;;6207727;22;20017;-49
2022/04/04 07:47:39;;;;;;;6.75;3.35;;;;;;;;;;6205334;22;20059;-46
2022/04/04 07:50:06;;;;;;;5.75;2.85;;;;;;;;;;6208302;22;20017;-45
2022/04/04 07:52:31;;;;;;;3.88;3.03;;;;;;;;;;6205393;22;20017;-47
2022/04/04 07:54:56;;;;;;;5.22;3.28;;;;;;;;;;6204167;22;20024;-45
2022/04/04 07:57:22;;;;;;;5.38;3.70;;;;;;;;;;6202294;22;20024;-44
2022/04/04 07:59:49;;;;;;;4.78;3.50;;;;;;;;;;6205216;22;20017;-45
2022/04/04 08:02:15;;;;;;;7.15;3.60;;;;;;;;;;6202158;22;20013;-46
2022/04/04 08:04:40;;;;;;;5.82;4.00;;;;;;;;;;6207552;22;20023;-44
2022/04/04 08:07:06;;;;;;;6.00;3.33;;;;;;;;;;6203991;22;20033;-45
2022/04/04 08:09:31;;;;;;;7.65;3.88;;;;;;;;;;6205542;22;20017;-45
2022/04/04 08:11:57;;;;;;;7.45;4.43;;;;;;;;;;6205116;22;20013;-44
2022/04/04 08:14:23;;;;;;;6.88;4.30;;;;;;;;;;6205089;22;20020;-44
2022/04/04 08:16:48;;;;;;;8.95;3.92;;;;;;;;;;6201407;22;20040;-44
2022/04/04 08:19:15;;;;;;;6.78;3.63;;;;;;;;;;6180747;22;20116;-44
2022/04/04 08:21:44;;;;;;;7.18;4.13;;;;;;;;;;6194318;22;20012;-43
2022/04/04 08:24:09;;;;;;;5.28;3.90;;;;;;;;;;6203976;22;20021;-43
2022/04/04 08:26:35;;;;;;;6.30;3.42;;;;;;;;;;6208800;22;20036;-43
2022/04/04 08:29:01;;;;;;;5.97;3.92;;;;;;;;;;6207510;22;20017;-45
2022/04/04 08:31:26;;;;;;;7.32;4.18;;;;;;;;;;6207794;22;20211;-44
2022/04/04 08:33:51;;;;;;;5.93;4.07;;;;;;;;;;6179924;23;20047;-44
2022/04/04 08:36:17;;;;;;;6.80;4.43;;;;;;;;;;6193739;22;20057;-44
2022/04/04 08:38:42;;;;;;;6.50;4.43;;;;;;;;;;6204873;22;20093;-44
2022/04/04 08:41:08;;;;;;;9.10;4.70;;;;;;;;;;6204945;22;20009;-43
2022/04/04 08:43:35;;;;;;;7.93;4.28;;;;;;;;;;6205983;22;20009;-46
2022/04/04 08:46:01;;;;;;;12.40;5.25;;;;;;;;;;6208885;22;20023;-44
2022/04/04 08:48:27;;;;;;;10.98;5.75;;;;;;;;;;6206052;22;20012;-43
2022/04/04 08:50:52;;;;;;;12.90;7.20;;;;;;;;;;6209392;22;20379;-44
2022/04/04 08:53:17;;;;;;;9.15;5.80;;;;;;;;;;6206007;22;20024;-47
2022/04/04 08:55:43;;;;;;;10.43;6.07;;;;;;;;;;6209315;22;20019;-43
2022/04/04 08:58:10;;;;;;;15.55;6.68;;;;;;;;;;6179896;23;20727;-45
2022/04/04 09:00:38;;;;;;;16.15;6.53;;;;;;;;;;6205389;22;20024;-44
2022/04/04 09:03:04;;;;;;;11.10;6.25;;;;;;;;;;6208546;22;20017;-45
2022/04/04 09:05:33;;;;;;;13.52;7.03;;;;;;;;;;6180686;22;20338;-46
2022/04/04 09:08:06;;;;;;;13.02;6.95;;;;;;;;;;6209804;22;20016;-45
2022/04/04 09:10:36;;;;;;;12.77;7.10;;;;;;;;;;6208347;22;20016;-47
2022/04/04 09:13:12;;;;;;;15.88;7.07;;;;;;;;;;6207846;22;20027;-45
2022/04/04 09:15:56;;;;;;;14.98;7.32;;;;;;;;;;6209131;22;20072;-44
2022/04/04 09:18:42;;;;;;;18.63;8.50;;;;;;;;;;6206362;22;20020;-44
2022/04/04 09:21:07;;;;;;;21.50;8.00;;;;;;;;;;6208118;22;20012;-44
2022/04/04 09:23:56;;;;;;;22.20;9.95;;;;;;;;;;6208153;22;20017;-44
2022/04/04 09:26:34;;;;;;;23.83;9.98;;;;;;;;;;6185187;22;20362;-44
2022/04/04 09:29:13;;;;;;;17.95;9.68;;;;;;;;;;6206716;22;20020;-46
2022/04/04 09:32:05;;;;;;;18.73;8.15;;;;;;;;;;6208042;22;20023;-44
2022/04/04 09:34:49;;;;;;;24.20;9.50;;;;;;;;;;6195380;22;20009;-45
2022/04/04 09:37:15;;;;;;;17.95;8.18;;;;;;;;;;6205490;22;20454;-47
2022/04/04 09:39:40;;;;;;;26.25;9.07;;;;;;;;;;6207617;22;20410;-45
2022/04/04 09:42:13;;;;;;;22.30;7.85;;;;;;;;;;6205625;22;20017;-44
2022/04/04 09:44:38;;;;;;;19.55;7.63;;;;;;;;;;6208617;22;20497;-47
2022/04/04 09:47:04;;;;;;;17.92;8.95;;;;;;;;;;6206470;22;20012;-46
2022/04/04 09:49:29;;;;;;;23.38;10.45;;;;;;;;;;6207947;22;20176;-47
2022/04/04 09:51:55;;;;;;;21.05;8.43;;;;;;;;;;6205383;22;20028;-43
2022/04/04 09:54:23;;;;;;;21.35;9.05;;;;;;;;;;6206620;22;20013;-45
2022/04/04 09:56:50;;;;;;;22.42;7.85;;;;;;;;;;6206555;22;20020;-47
2022/04/04 09:59:16;;;;;;;18.50;8.48;;;;;;;;;;6207638;22;20028;-47
2022/04/04 10:01:44;;;;;;;22.60;8.07;;;;;;;;;;6206456;22;20017;-44
2022/04/04 10:04:12;;;;;;;19.13;8.30;;;;;;;;;;6208136;22;20017;-48
2022/04/04 10:06:38;;;;;;;13.82;6.88;;;;;;;;;;6179693;23;20012;-46
2022/04/04 10:09:03;;;;;;;16.52;8.07;;;;;;;;;;6208532;22;20020;-46
2022/04/04 10:11:30;;;;;;;39.30;10.38;;;;;;;;;;6205676;22;20937;-44
2022/04/04 10:13:56;;;;;;;17.23;8.32;;;;;;;;;;6209844;22;20502;-50
2022/04/04 10:16:22;;;;;;;16.60;7.85;;;;;;;;;;6205938;22;20005;-47
2022/04/04 10:18:48;;;;;;;18.50;7.55;;;;;;;;;;6175257;23;20066;-47
2022/04/04 10:21:14;;;;;;;15.15;7.72;;;;;;;;;;6206619;22;20012;-45
2022/04/04 10:23:40;;;;;;;13.02;7.18;;;;;;;;;;6178684;23;20012;-46
2022/04/04 10:26:07;;;;;;;18.25;7.10;;;;;;;;;;6207641;22;20035;-45
2022/04/04 10:28:37;;;;;;;15.00;6.88;;;;;;;;;;6204647;22;20027;-46
2022/04/04 10:31:14;;;;;;;17.25;7.32;;;;;;;;;;6207560;22;20063;-46
2022/04/04 10:33:39;;;;;;;16.30;8.32;;;;;;;;;;6205456;22;20005;-46
2022/04/04 10:36:06;;;;;;;18.83;6.93;;;;;;;;;;6207689;22;20137;-49
2022/04/04 10:38:35;;;;;;;12.15;5.50;;;;;;;;;;6205854;22;20019;-46
2022/04/04 10:41:03;;;;;;;12.00;7.05;;;;;;;;;;6208617;22;20013;-48
2022/04/04 10:43:32;;;;;;;19.33;6.72;;;;;;;;;;6206603;22;20044;-49
2022/04/04 10:45:59;;;;;;;27.35;7.90;;;;;;;;;;6207896;22;20028;-46
2022/04/04 10:48:29;;;;;;;14.80;6.95;;;;;;;;;;6206065;22;20072;-47
2022/04/04 10:50:54;;;;;;;13.35;5.78;;;;;;;;;;6206160;22;20059;-49
2022/04/04 10:53:39;;;;;;;14.98;5.90;;;;;;;;;;6207353;22;20016;-46
2022/04/04 10:56:05;;;;;;;15.68;5.72;;;;;;;;;;6208559;22;20017;-46
2022/04/04 10:58:31;;;;;;;19.35;6.35;;;;;;;;;;6206082;22;20023;-45
2022/04/04 11:01:03;;;;;;;10.15;5.65;;;;;;;;;;6209081;22;20043;-48
2022/04/04 11:03:29;;;;;;;14.57;6.72;;;;;;;;;;6179933;22;20043;-47
2022/04/04 11:08:44;;;;;;;13.80;6.22;;;;;;;;;;6199212;22;20016;-45
2022/04/04 11:11:14;;;;;;;13.02;6.55;;;;;;;;;;6175763;23;20013;-47
2022/04/04 11:13:49;;;;;;;8.10;5.05;;;;;;;;;;6195514;22;20012;-46
2022/04/04 11:16:17;;;;;;;7.00;4.10;;;;;;;;;;6206577;22;20089;-47
2022/04/04 11:18:52;;;;;;;7.28;4.10;;;;;;;;;;6205183;22;20012;-47
2022/04/04 11:21:36;;;;;;;7.93;4.68;;;;;;;;;;6203553;22;20027;-46
2022/04/04 11:24:06;;;;;;;11.82;3.67;;;;;;;;;;6203598;22;20520;-45
2022/04/04 11:26:32;;;;;;;7.32;4.03;;;;;;;;;;6204831;22;20012;-45
2022/04/04 11:28:58;;;;;;;5.82;3.40;;;;;;;;;;6179639;23;20266;-46
2022/04/04 11:31:24;;;;;;;8.63;4.60;;;;;;;;;;6204480;22;20058;-47
2022/04/04 11:33:54;;;;;;;7.55;4.05;;;;;;;;;;6206909;22;20009;-47
2022/04/04 11:36:23;;;;;;;11.75;5.10;;;;;;;;;;6206066;22;20016;-44
2022/04/04 11:38:51;;;;;;;11.60;5.63;;;;;;;;;;6208208;22;20020;-44
2022/04/04 11:41:17;;;;;;;6.32;4.05;;;;;;;;;;6207526;22;20535;-45
2022/04/04 11:43:48;;;;;;;10.10;4.30;;;;;;;;;;6204654;22;20009;-44
2022/04/04 11:46:18;;;;;;;4.90;3.10;;;;;;;;;;6206798;22;20017;-44
2022/04/04 11:48:51;;;;;;;5.97;3.25;;;;;;;;;;6205242;22;20222;-45
2022/04/04 11:51:17;;;;;;;5.70;4.15;;;;;;;;;;6208764;22;20052;-44
2022/04/04 11:53:43;;;;;;;3.60;2.22;;;;;;;;;;6206927;22;20013;-45
2022/04/04 11:56:13;;;;;;;4.53;2.33;;;;;;;;;;6209341;22;20023;-46
2022/04/04 11:58:38;;;;;;;;;;;;;;;;;;6199138;22;20008;-45
2022/04/04 12:01:07;;;;;;;6.18;3.72;;;;;;;;;;6206101;22;20271;-46
2022/04/04 12:03:32;;;;;;;6.05;3.20;;;;;;;;;;6203187;22;20039;-47
2022/04/04 12:06:05;;;;;;;9.25;3.78;;;;;;;;;;6206037;22;20013;-45
2022/04/04 12:08:30;;;;;;;8.32;2.92;;;;;;;;;;6203215;22;20021;-45
2022/04/04 12:10:56;;;;;;;4.97;2.88;;;;;;;;;;6205777;22;20009;-46
2022/04/04 12:13:22;;;;;;;6.63;4.13;;;;;;;;;;6203136;22;20100;-47
2022/04/04 12:15:48;;;;;;;6.53;2.63;;;;;;;;;;6206308;22;20016;-46
2022/04/04 12:18:26;;;;;;;7.85;3.45;;;;;;;;;;6203749;22;20021;-47
2022/04/04 12:20:53;;;;;;;5.32;3.00;;;;;;;;;;6206135;22;20047;-45
2022/04/04 12:26:09;;;;;;;6.88;4.07;;;;;;;;;;6204285;22;20561;-44
2022/04/04 12:28:35;;;;;;;5.57;2.20;;;;;;;;;;6201686;22;20023;-44
2022/04/04 12:31:15;;;;;;;6.40;3.30;;;;;;;;;;6207009;22;20017;-44
2022/04/04 12:33:40;;;;;;;;;;;;;;;;;;6206769;22;20015;-47
2022/04/04 12:36:06;;;;;;;5.57;2.10;;;;;;;;;;6208650;22;20110;-48
2022/04/04 12:38:31;;;;;;;6.47;3.45;;;;;;;;;;6207718;22;20494;-46
2022/04/04 12:41:02;;;;;;;3.97;2.65;;;;;;;;;;6209303;22;20064;-44
2022/04/04 12:43:27;;;;;;;4.20;2.63;;;;;;;;;;6208519;22;20060;-46
2022/04/04 12:45:53;;;;;;;4.97;3.08;;;;;;;;;;6208175;22;20028;-46
2022/04/04 12:48:18;;;;;;;4.35;1.70;;;;;;;;;;6207187;22;20314;-44
2022/04/04 12:50:46;;;;;;;8.38;3.85;;;;;;;;;;6208176;22;20931;-45
2022/04/04 12:53:12;;;;;;;8.70;3.05;;;;;;;;;;6208627;22;20017;-48
2022/04/04 12:55:38;;;;;;;5.72;2.92;;;;;;;;;;6206343;22;20016;-45
2022/04/04 12:58:21;;;;;;;5.55;3.33;;;;;;;;;;6208424;22;20021;-45
2022/04/04 13:00:47;;;;;;;5.63;3.53;;;;;;;;;;6207653;22;20023;-44
2022/04/04 13:03:38;;;;;;;7.13;4.35;;;;;;;;;;6182495;23;20017;-48
2022/04/04 13:06:11;;;;;;;4.07;2.70;;;;;;;;;;6204465;22;20104;-44
2022/04/04 13:08:36;;;;;;;6.18;4.13;;;;;;;;;;6206656;22;20043;-44
2022/04/04 13:11:04;;;;;;;6.75;3.83;;;;;;;;;;6209359;22;20013;-44
2022/04/04 13:13:30;;;;;;;5.60;3.17;;;;;;;;;;6206986;22;20012;-44
2022/04/04 13:15:55;;;;;;;6.15;2.55;;;;;;;;;;6209857;22;20085;-44
2022/04/04 13:18:21;;;;;;;7.82;3.80;;;;;;;;;;6180175;22;20008;-46
2022/04/04 13:20:46;;;;;;;6.45;3.60;;;;;;;;;;6208992;22;20051;-46
2022/04/04 13:23:12;;;;;;;7.97;3.38;;;;;;;;;;6181571;23;20013;-44
2022/04/04 13:25:40;;;;;;;9.10;4.70;;;;;;;;;;6205854;22;20028;-46
2022/04/04 13:28:10;;;;;;;5.90;3.83;;;;;;;;;;6182292;23;20017;-45
2022/04/04 13:30:36;;;;;;;6.03;3.10;;;;;;;;;;6209270;22;20447;-43
2022/04/04 13:33:01;;;;;;;7.53;2.78;;;;;;;;;;6203467;22;20016;-44
2022/04/04 13:35:26;;;;;;;5.80;2.78;;;;;;;;;;6208595;22;20070;-44
2022/04/04 13:37:51;;;;;;;5.38;2.95;;;;;;;;;;6208004;22;20016;-44
2022/04/04 13:40:17;;;;;;;4.40;2.20;;;;;;;;;;6208631;22;20052;-43
2022/04/04 13:42:43;;;;;;;3.13;2.10;;;;;;;;;;6178931;23;20035;-43
2022/04/04 13:45:09;;;;;;;4.50;2.30;;;;;;;;;;6207563;22;20474;-45
2022/04/04 13:47:35;;;;;;;6.07;1.95;;;;;;;;;;6194159;22;20016;-44
2022/04/04 13:50:00;;;;;;;1.95;1.73;;;;;;;;;;6196499;22;20009;-44
2022/04/04 13:52:26;;;;;;;2.67;1.20;;;;;;;;;;6189076;22;20020;-45
2022/04/04 13:54:51;;;;;;;1.27;0.90;;;;;;;;;;6200880;22;20295;-46
2022/04/04 13:57:16;;;;;;;1.30;1.00;;;;;;;;;;6197998;22;20024;-46
2022/04/04 13:59:42;;;;;;;0.75;0.57;;;;;;;;;;6150533;22;20014;-49
2022/04/04 14:02:09;;;;;;;1.80;0.40;;;;;;;;;;6048302;23;20033;-44
2022/04/04 14:04:35;;;;;;;1.75;0.70;;;;;;;;;;6051274;23;20038;-45
2022/04/04 14:07:02;;;;;;;1.75;0.52;;;;;;;;;;6067394;23;20006;-44
2022/04/04 14:09:27;;;;;;;0.47;0.30;;;;;;;;;;6072348;23;20377;-46
2022/04/04 14:11:52;;;;;;;0.38;0.38;;;;;;;;;;6035759;23;20201;-47
2022/04/04 14:14:18;;;;;;;0.82;0.50;;;;;;;;;;6016135;23;20383;-45
2022/04/04 14:16:43;;;;;;;0.22;0.22;;;;;;;;;;6049063;23;20070;-46
2022/04/04 14:19:09;;;;;;;2.45;0.50;;;;;;;;;;6057369;23;20022;-46
2022/04/04 14:21:35;;;;;;;0.57;0.30;;;;;;;;;;6039437;23;20014;-46
2022/04/04 14:24:00;;;;;;;2.25;0.50;;;;;;;;;;6060762;23;20154;-46
2022/04/04 14:26:27;;;;;;;1.65;0.30;;;;;;;;;;6058563;23;20659;-45
2022/04/04 14:28:52;;;;;;;1.75;0.43;;;;;;;;;;6030946;23;20588;-47
2022/04/04 14:31:18;;;;;;;0.52;0.35;;;;;;;;;;6057630;23;20852;-46
2022/04/04 14:33:43;;;;;;;0.43;0.20;;;;;;;;;;6058986;23;20037;-47
2022/04/04 14:36:09;;;;;;;0.20;0.20;;;;;;;;;;6059184;23;20014;-46
2022/04/04 14:38:37;;;;;;;0.25;0.20;;;;;;;;;;6058683;23;20034;-46
2022/04/04 14:41:03;;;;;;;0.35;0.10;;;;;;;;;;6061879;23;20015;-45